createdAt,value
2018-12-13T00:00:51.413Z,15.93
2018-12-13T00:03:18.904Z,12.20
2018-12-13T00:05:46.340Z,17.73
2018-12-13T00:08:13.794Z,14.45
2018-12-13T00:10:41.268Z,13.35
2018-12-13T00:13:08.725Z,13.65
2018-12-13T00:15:36.181Z,15.95
2018-12-13T00:18:03.725Z,12.63
2018-12-13T00:20:31.165Z,16.75
2018-12-13T00:22:58.618Z,13.93
2018-12-13T00:25:26.099Z,16.90
2018-12-13T00:27:53.553Z,13.93
2018-12-13T00:30:21.040Z,17.62
2018-12-13T00:32:48.493Z,16.37
2018-12-13T00:35:15.941Z,17.73
2018-12-13T00:37:43.389Z,15.98
2018-12-13T00:40:10.886Z,18.40
2018-12-13T00:42:38.343Z,16.70
2018-12-13T00:45:06.867Z,15.88
2018-12-13T00:47:34.365Z,17.90
2018-12-13T00:50:01.806Z,14.90
2018-12-13T00:52:29.266Z,17.48
2018-12-13T00:54:56.717Z,14.87
2018-12-13T00:57:24.175Z,18.98
2018-12-13T00:59:51.628Z,16.42
2018-12-13T01:02:19.083Z,13.08
2018-12-13T01:04:46.533Z,13.80
2018-12-13T01:07:13.995Z,16.00
2018-12-13T01:09:41.442Z,15.13
2018-12-13T01:12:08.902Z,16.40
2018-12-13T01:14:36.350Z,15.40
2018-12-13T01:17:03.804Z,13.88
2018-12-13T01:19:31.253Z,18.37
2018-12-13T01:21:58.705Z,13.15
2018-12-13T01:24:26.152Z,18.17
2018-12-13T01:26:53.601Z,17.73
2018-12-13T01:29:21.049Z,15.32
2018-12-13T01:31:48.504Z,18.52
2018-12-13T01:34:15.945Z,17.40
2018-12-13T01:36:43.407Z,17.23
2018-12-13T01:39:10.849Z,18.92
2018-12-13T01:41:38.296Z,18.50
2018-12-13T01:44:05.753Z,21.62
2018-12-13T01:46:33.258Z,19.02
2018-12-13T01:49:00.723Z,19.77
2018-12-13T01:51:28.173Z,22.30
2018-12-13T01:53:55.629Z,18.98
2018-12-13T01:56:23.124Z,17.82
2018-12-13T01:58:50.581Z,18.62
2018-12-13T02:01:18.023Z,17.42
2018-12-13T02:03:45.485Z,20.52
2018-12-13T02:06:12.941Z,17.62
2018-12-13T02:08:40.381Z,21.35
2018-12-13T02:11:07.863Z,23.15
2018-12-13T02:13:35.315Z,17.60
2018-12-13T02:16:02.792Z,17.80
2018-12-13T02:18:30.276Z,20.55
2018-12-13T02:20:57.761Z,20.30
2018-12-13T02:23:25.377Z,15.93
2018-12-13T02:25:52.820Z,13.22
2018-12-13T02:28:20.269Z,8.58
2018-12-13T02:30:47.716Z,9.78
2018-12-13T02:33:15.261Z,6.85
2018-12-13T02:35:42.695Z,6.30
2018-12-13T02:38:10.143Z,4.17
2018-12-13T02:40:37.758Z,5.58
2018-12-13T02:43:05.240Z,7.92
2018-12-13T02:45:32.714Z,6.78
2018-12-13T02:48:00.170Z,7.92
2018-12-13T02:50:27.609Z,8.05
2018-12-13T02:52:55.058Z,4.62
2018-12-13T02:55:22.501Z,3.85
2018-12-13T02:57:49.944Z,6.40
2018-12-13T03:00:17.425Z,5.72
2018-12-13T03:02:44.881Z,3.85
2018-12-13T03:05:12.364Z,5.25
2018-12-13T03:07:39.816Z,6.80
2018-12-13T03:10:07.296Z,8.78
2018-12-13T03:12:34.750Z,4.25
2018-12-13T03:15:02.324Z,6.85
2018-12-13T03:17:29.776Z,7.30
2018-12-13T03:19:57.219Z,5.72
2018-12-13T03:22:24.661Z,7.03
2018-12-13T03:24:52.120Z,5.83
2018-12-13T03:27:19.555Z,6.55
2018-12-13T03:29:47.005Z,5.08
2018-12-13T03:32:14.453Z,5.37
2018-12-13T03:34:41.997Z,4.95
2018-12-13T03:37:09.432Z,7.20
2018-12-13T03:39:36.897Z,5.37
2018-12-13T03:42:04.372Z,5.85
2018-12-13T03:44:31.830Z,6.42
2018-12-13T03:46:59.283Z,7.25
2018-12-13T03:49:26.770Z,8.80
2018-12-13T03:51:54.245Z,8.75
2018-12-13T03:54:21.693Z,9.90
2018-12-13T03:56:49.139Z,7.40
2018-12-13T03:59:16.588Z,8.03
2018-12-13T04:01:44.033Z,10.72
2018-12-13T04:04:11.486Z,8.75
2018-12-13T04:06:38.942Z,12.60
2018-12-13T04:09:06.663Z,10.15
2018-12-13T04:11:34.106Z,12.10
2018-12-13T04:14:01.597Z,13.05
2018-12-13T04:16:29.050Z,13.28
2018-12-13T04:18:56.502Z,13.22
2018-12-13T04:21:23.937Z,12.53
2018-12-13T04:23:51.398Z,11.00
2018-12-13T04:26:18.849Z,14.65
2018-12-13T04:28:46.310Z,12.18
2018-12-13T04:31:13.740Z,12.28
2018-12-13T04:33:41.207Z,13.90
2018-12-13T04:36:08.645Z,13.60
2018-12-13T04:38:36.109Z,16.02
2018-12-13T04:41:03.677Z,16.70
2018-12-13T04:43:31.130Z,14.30
2018-12-13T04:45:58.582Z,14.87
2018-12-13T04:48:26.041Z,15.23
2018-12-13T04:50:53.485Z,12.15
2018-12-13T04:53:20.969Z,15.58
2018-12-13T04:55:48.410Z,15.20
2018-12-13T04:58:15.891Z,13.28
2018-12-13T05:00:43.404Z,20.97
2018-12-13T05:03:10.852Z,18.62
2018-12-13T05:05:38.314Z,17.17
2018-12-13T05:08:05.762Z,17.27
2018-12-13T05:10:44.981Z,17.23
2018-12-13T05:13:12.426Z,17.40
2018-12-13T05:15:39.887Z,17.30
2018-12-13T05:18:07.334Z,17.67
2018-12-13T05:20:34.785Z,18.82
2018-12-13T05:23:02.234Z,18.32
2018-12-13T05:25:29.681Z,15.20
2018-12-13T05:27:57.172Z,15.23
2018-12-13T05:30:24.630Z,19.17
2018-12-13T05:32:52.073Z,15.00
2018-12-13T05:35:19.525Z,16.93
2018-12-13T05:37:48.373Z,16.87
2018-12-13T05:40:16.012Z,19.48
2018-12-13T05:42:43.501Z,15.88
2018-12-13T05:45:10.999Z,16.55
2018-12-13T05:47:38.449Z,17.65
2018-12-13T05:50:05.981Z,19.07
2018-12-13T05:52:33.431Z,14.13
2018-12-13T05:55:00.885Z,21.90
2018-12-13T05:57:28.334Z,19.00
2018-12-13T05:59:55.781Z,22.10
2018-12-13T06:02:23.233Z,23.98
2018-12-13T06:04:50.693Z,27.07
2018-12-13T06:07:18.220Z,27.25
2018-12-13T06:09:45.678Z,19.95
2018-12-13T06:12:13.124Z,19.02
2018-12-13T06:14:40.590Z,19.17
2018-12-13T06:17:08.038Z,17.05
2018-12-13T06:19:35.494Z,22.82
2018-12-13T06:22:02.940Z,17.37
2018-12-13T06:24:30.401Z,22.45
2018-12-13T06:26:57.844Z,28.10
2018-12-13T06:29:25.306Z,29.50
2018-12-13T06:31:52.796Z,24.18
2018-12-13T06:34:20.340Z,27.52
2018-12-13T06:36:47.786Z,25.60
2018-12-13T06:39:15.234Z,22.73
2018-12-13T06:41:42.725Z,21.12
2018-12-13T06:44:10.173Z,19.95
2018-12-13T06:46:37.651Z,24.20
2018-12-13T06:49:05.102Z,23.65
2018-12-13T06:51:32.565Z,26.17
2018-12-13T06:54:00.009Z,27.48
2018-12-13T06:56:27.467Z,18.20
2018-12-13T06:58:54.915Z,26.77
2018-12-13T07:01:22.376Z,28.32
2018-12-13T07:03:49.823Z,26.20
2018-12-13T07:06:17.302Z,30.25
2018-12-13T07:08:44.761Z,26.62
2018-12-13T07:11:12.214Z,29.70
2018-12-13T07:13:39.652Z,33.35
2018-12-13T07:16:07.105Z,34.83
2018-12-13T07:18:34.557Z,33.33
2018-12-13T07:21:02.029Z,27.02
2018-12-13T07:23:29.481Z,31.62
2018-12-13T07:25:56.931Z,26.87
2018-12-13T07:28:24.385Z,25.82
2018-12-13T07:30:51.869Z,24.52
2018-12-13T07:33:19.316Z,24.85
2018-12-13T07:35:46.825Z,29.07
2018-12-13T07:38:14.628Z,22.80
2018-12-13T07:40:42.257Z,20.65
2018-12-13T07:43:09.716Z,24.07
2018-12-13T07:45:37.197Z,22.17
2018-12-13T07:48:04.670Z,25.27
2018-12-13T07:50:32.156Z,20.85
2018-12-13T07:52:59.601Z,21.55
2018-12-13T07:55:27.088Z,23.80
2018-12-13T07:57:54.542Z,24.57
2018-12-13T08:00:22.037Z,24.07
2018-12-13T08:02:55.810Z,26.73
2018-12-13T08:05:23.252Z,20.70
2018-12-13T08:07:50.705Z,18.62
2018-12-13T08:10:18.174Z,21.35
2018-12-13T08:12:45.631Z,21.80
2018-12-13T08:15:13.085Z,19.12
2018-12-13T08:17:40.549Z,18.05
2018-12-13T08:20:08.292Z,20.17
2018-12-13T08:22:35.751Z,19.12
2018-12-13T08:25:03.899Z,19.65
2018-12-13T08:27:31.367Z,17.77
2018-12-13T08:29:58.817Z,20.57
2018-12-13T08:32:26.314Z,21.25
2018-12-13T08:34:53.778Z,20.12
2018-12-13T08:37:21.278Z,17.90
2018-12-13T08:39:48.771Z,18.05
2018-12-13T08:42:16.224Z,18.37
2018-12-13T08:44:43.685Z,19.50
2018-12-13T08:47:11.173Z,15.32
2018-12-13T08:49:38.628Z,18.60
2018-12-13T08:52:06.090Z,20.25
2018-12-13T08:54:33.538Z,15.05
2018-12-13T08:57:01.002Z,19.42
2018-12-13T08:59:28.453Z,18.20
2018-12-13T09:01:55.909Z,18.82
2018-12-13T09:04:23.375Z,17.42
2018-12-13T09:06:50.844Z,19.50
2018-12-13T09:09:18.297Z,16.70
2018-12-13T09:11:45.757Z,16.75
2018-12-13T09:14:13.296Z,15.58
2018-12-13T09:16:40.789Z,14.55
2018-12-13T09:19:08.234Z,16.12
2018-12-13T09:21:35.736Z,16.20
2018-12-13T09:24:03.188Z,22.20
2018-12-13T09:26:31.019Z,14.33
2018-12-13T09:28:58.485Z,17.25
2018-12-13T09:31:25.946Z,16.87
2018-12-13T09:33:53.430Z,17.25
2018-12-13T09:36:20.894Z,16.05
2018-12-13T09:38:48.338Z,16.70
2018-12-13T09:41:15.805Z,17.23
2018-12-13T09:43:43.290Z,19.32
2018-12-13T09:46:10.755Z,17.70
2018-12-13T09:48:38.198Z,15.95
2018-12-13T09:51:05.685Z,17.85
2018-12-13T09:53:33.136Z,19.20
2018-12-13T09:56:01.336Z,19.73
2018-12-13T09:58:28.770Z,16.93
2018-12-13T10:00:56.222Z,17.37
2018-12-13T10:03:23.682Z,23.30
2018-12-13T10:05:51.126Z,17.25
2018-12-13T10:08:18.594Z,19.40
2018-12-13T10:10:46.060Z,17.32
2018-12-13T10:13:13.515Z,18.90
2018-12-13T10:15:40.964Z,16.67
2018-12-13T10:18:08.426Z,19.35
2018-12-13T10:20:35.889Z,16.05
2018-12-13T10:23:03.386Z,14.33
2018-12-13T10:25:30.896Z,17.70
2018-12-13T10:27:58.349Z,15.72
2018-12-13T10:30:25.811Z,15.85
2018-12-13T10:32:53.262Z,14.68
2018-12-13T10:35:20.758Z,13.80
2018-12-13T10:37:48.270Z,16.10
2018-12-13T10:40:15.766Z,15.48
2018-12-13T10:42:43.227Z,16.05
2018-12-13T10:45:10.674Z,14.47
2018-12-13T10:47:38.149Z,13.55
2018-12-13T10:50:06.171Z,15.00
2018-12-13T10:52:33.631Z,13.35
2018-12-13T10:55:01.081Z,15.85
2018-12-13T10:57:28.534Z,15.88
2018-12-13T10:59:56.000Z,13.80
2018-12-13T11:02:29.362Z,14.83
2018-12-13T11:04:56.806Z,13.15
2018-12-13T11:07:24.266Z,15.38
2018-12-13T11:09:51.721Z,13.93
2018-12-13T11:12:19.195Z,15.05
2018-12-13T11:14:46.643Z,14.65
2018-12-13T11:17:14.174Z,12.63
2018-12-13T11:19:41.741Z,15.88
2018-12-13T11:22:09.214Z,14.00
2018-12-13T11:24:36.669Z,13.03
2018-12-13T11:27:21.905Z,17.07
2018-12-13T11:29:58.083Z,15.32
2018-12-13T11:32:25.533Z,15.10
2018-12-13T11:34:53.004Z,10.72
2018-12-13T11:37:20.456Z,15.32
2018-12-13T11:39:47.911Z,12.95
2018-12-13T11:42:15.390Z,23.45
2018-12-13T11:44:42.846Z,13.60
2018-12-13T11:47:10.357Z,13.95
2018-12-13T11:49:37.820Z,12.80
2018-12-13T11:52:05.270Z,14.30
2018-12-13T11:54:34.363Z,14.93
2018-12-13T11:57:02.023Z,14.28
2018-12-13T11:59:29.486Z,23.35
2018-12-13T12:01:56.952Z,12.55
2018-12-13T12:04:24.415Z,11.30
2018-12-13T12:06:51.873Z,12.40
2018-12-13T12:09:19.434Z,13.38
2018-12-13T12:11:46.881Z,9.50
2018-12-13T12:14:14.339Z,13.55
2018-12-13T12:16:41.781Z,12.25
2018-12-13T12:19:09.341Z,11.40
2018-12-13T12:21:36.826Z,12.25
2018-12-13T12:24:04.291Z,8.08
2018-12-13T12:26:32.498Z,10.58
2018-12-13T12:28:59.977Z,9.18
2018-12-13T12:31:27.468Z,12.03
2018-12-13T12:33:54.925Z,12.47
2018-12-13T12:36:22.387Z,10.85
2018-12-13T12:38:49.838Z,10.45
2018-12-13T12:41:17.296Z,12.18
2018-12-13T12:43:44.746Z,17.45
2018-12-13T12:46:12.205Z,14.90
2018-12-13T12:48:39.659Z,12.23
2018-12-13T12:51:07.121Z,9.88
2018-12-13T12:53:34.567Z,10.48
2018-12-13T12:56:02.760Z,15.38
2018-12-13T12:58:30.199Z,16.73
2018-12-13T13:00:57.705Z,13.20
2018-12-13T13:03:25.162Z,10.50
2018-12-13T13:05:52.621Z,12.37
2018-12-13T13:08:20.087Z,9.13
2018-12-13T13:10:47.546Z,13.30
2018-12-13T13:13:14.995Z,12.23
2018-12-13T13:15:42.466Z,15.45
2018-12-13T13:18:09.916Z,10.45
2018-12-13T13:20:37.378Z,13.53
2018-12-13T13:23:04.830Z,12.45
2018-12-13T13:25:32.298Z,15.23
2018-12-13T13:27:59.798Z,14.75
2018-12-13T13:30:27.284Z,11.18
2018-12-13T13:32:54.735Z,9.85
2018-12-13T13:35:22.195Z,18.75
2018-12-13T13:37:49.649Z,10.78
2018-12-13T13:40:17.108Z,14.58
2018-12-13T13:42:44.562Z,17.62
2018-12-13T13:45:13.397Z,13.08
2018-12-13T13:47:40.859Z,12.35
2018-12-13T13:50:08.358Z,15.32
2018-12-13T13:52:35.808Z,15.70
2018-12-13T13:55:03.950Z,19.15
2018-12-13T13:57:31.418Z,13.40
2018-12-13T13:59:58.875Z,12.80
2018-12-13T14:02:26.338Z,16.05
2018-12-13T14:04:53.793Z,20.55
2018-12-13T14:07:21.255Z,14.58
2018-12-13T14:09:48.702Z,13.40
2018-12-13T14:12:16.157Z,14.00
2018-12-13T14:14:43.613Z,12.40
2018-12-13T14:17:11.073Z,15.50
2018-12-13T14:19:38.522Z,12.23
2018-12-13T14:22:06.047Z,17.85
2018-12-13T14:24:33.498Z,13.08
2018-12-13T14:27:00.953Z,18.17
2018-12-13T14:29:28.408Z,12.65
2018-12-13T14:31:55.875Z,14.95
2018-12-13T14:34:23.326Z,19.82
2018-12-13T14:36:50.796Z,18.90
2018-12-13T14:39:18.239Z,14.43
2018-12-13T14:41:45.746Z,16.52
2018-12-13T14:44:13.189Z,22.02
2018-12-13T14:46:40.644Z,14.13
2018-12-13T14:49:08.103Z,16.75
2018-12-13T14:51:35.649Z,14.85
2018-12-13T14:54:03.142Z,15.80
2018-12-13T14:56:30.644Z,16.87
2018-12-13T14:58:58.099Z,15.83
2018-12-13T15:01:25.592Z,33.20
2018-12-13T15:03:53.041Z,17.75
2018-12-13T15:06:20.539Z,18.20
2018-12-13T15:08:47.999Z,18.75
2018-12-13T15:11:15.442Z,20.45
2018-12-13T15:13:42.917Z,18.87
2018-12-13T15:16:11.019Z,20.50
2018-12-13T15:18:38.627Z,21.20
2018-12-13T15:21:06.114Z,18.92
2018-12-13T15:23:33.582Z,19.92
2018-12-13T15:26:01.039Z,17.00
2018-12-13T15:28:28.498Z,28.05
2018-12-13T15:30:55.950Z,22.93
2018-12-13T15:33:23.403Z,17.50
2018-12-13T15:35:50.847Z,20.55
2018-12-13T15:38:18.306Z,24.77
2018-12-13T15:40:45.786Z,17.57
2018-12-13T15:43:13.255Z,22.98
2018-12-13T15:45:41.059Z,27.90
2018-12-13T15:48:08.555Z,23.98
2018-12-13T15:50:36.002Z,20.77
2018-12-13T15:53:03.498Z,23.98
2018-12-13T15:55:31.038Z,29.18
2018-12-13T15:57:58.501Z,21.55
2018-12-13T16:00:25.991Z,26.52
2018-12-13T16:02:53.458Z,19.35
2018-12-13T16:05:20.920Z,19.42
2018-12-13T16:07:48.374Z,27.27
2018-12-13T16:10:15.834Z,23.38
2018-12-13T16:12:43.287Z,26.80
2018-12-13T16:15:10.791Z,16.93
2018-12-13T16:17:38.285Z,25.97
2018-12-13T16:20:06.106Z,19.92
2018-12-13T16:22:33.572Z,25.10
2018-12-13T16:25:01.034Z,40.75
2018-12-13T16:27:28.485Z,24.10
2018-12-13T16:29:56.111Z,30.60
2018-12-13T16:32:23.551Z,27.48
2018-12-13T16:34:51.002Z,24.18
2018-12-13T16:37:18.456Z,23.25
2018-12-13T16:39:45.943Z,21.70
2018-12-13T16:42:13.381Z,22.40
2018-12-13T16:44:40.850Z,26.73
2018-12-13T16:47:08.311Z,25.02
2018-12-13T16:49:35.921Z,24.02
2018-12-13T16:52:03.374Z,27.50
2018-12-13T16:54:30.964Z,34.80
2018-12-13T16:56:58.474Z,29.87
2018-12-13T16:59:25.944Z,23.32
2018-12-13T17:01:53.409Z,25.45
2018-12-13T17:04:20.859Z,23.90
2018-12-13T17:06:48.319Z,25.02
2018-12-13T17:09:15.784Z,23.18
2018-12-13T17:11:43.394Z,29.20
2018-12-13T17:14:10.880Z,25.30
2018-12-13T17:16:38.628Z,25.00
2018-12-13T17:19:06.218Z,22.98
2018-12-13T17:21:33.696Z,24.43
2018-12-13T17:24:01.187Z,28.38
2018-12-13T17:26:28.766Z,26.80
2018-12-13T17:28:56.219Z,27.95
2018-12-13T17:31:23.721Z,25.40
2018-12-13T17:33:51.182Z,26.70
2018-12-13T17:36:18.660Z,24.72
2018-12-13T17:38:46.124Z,24.67
2018-12-13T17:41:13.585Z,18.90
2018-12-13T17:43:41.042Z,29.18
2018-12-13T17:46:08.606Z,20.25
2018-12-13T17:48:36.099Z,20.00
2018-12-13T17:51:03.563Z,28.95
2018-12-13T17:53:31.010Z,25.85
2018-12-13T17:55:58.783Z,23.85
2018-12-13T17:58:26.245Z,27.85
2018-12-13T18:00:53.716Z,26.02
2018-12-13T18:03:21.179Z,29.40
2018-12-13T18:05:48.659Z,23.60
2018-12-13T18:08:16.106Z,26.17
2018-12-13T18:10:43.852Z,28.95
2018-12-13T18:13:11.307Z,24.32
2018-12-13T18:15:38.766Z,23.65
2018-12-13T18:18:06.435Z,25.20
2018-12-13T18:20:33.911Z,28.05
2018-12-13T18:23:01.365Z,25.12
2018-12-13T18:25:28.835Z,24.60
2018-12-13T18:27:56.286Z,25.08
2018-12-13T18:30:23.768Z,26.73
2018-12-13T18:32:51.222Z,29.63
2018-12-13T18:35:18.762Z,23.95
2018-12-13T18:37:46.214Z,24.65
2018-12-13T18:40:13.730Z,25.40
2018-12-13T18:42:41.205Z,28.12
2018-12-13T18:45:08.707Z,34.60
2018-12-13T18:47:36.157Z,29.27
2018-12-13T18:50:04.459Z,24.12
2018-12-13T18:52:31.918Z,22.55
2018-12-13T18:54:59.378Z,32.30
2018-12-13T18:57:26.926Z,35.13
2018-12-13T18:59:54.405Z,26.10
2018-12-13T19:02:22.001Z,27.32
2018-12-13T19:04:49.468Z,36.00
2018-12-13T19:07:16.935Z,28.25
2018-12-13T19:09:44.496Z,28.42
2018-12-13T19:12:11.950Z,38.00
2018-12-13T19:14:39.654Z,31.52
2018-12-13T19:17:07.129Z,35.23
2018-12-13T19:19:34.599Z,30.50
2018-12-13T19:22:02.099Z,28.77
2018-12-13T19:24:29.567Z,33.15
2018-12-13T19:26:57.044Z,32.05
2018-12-13T19:29:24.499Z,23.57
2018-12-13T19:31:51.975Z,34.20
2018-12-13T19:34:19.456Z,25.88
2018-12-13T19:36:46.927Z,26.82
2018-12-13T19:39:14.382Z,30.57
2018-12-13T19:41:42.114Z,26.90
2018-12-13T19:44:11.256Z,26.10
2018-12-13T19:46:39.011Z,32.42
2018-12-13T19:49:06.683Z,30.40
2018-12-13T19:51:34.607Z,26.42
2018-12-13T19:54:02.334Z,26.75
2018-12-13T19:56:30.763Z,33.80
2018-12-13T19:58:58.522Z,30.90
2018-12-13T20:01:26.345Z,24.25
2018-12-13T20:03:54.112Z,33.45
2018-12-13T20:06:22.623Z,26.70
2018-12-13T20:08:50.122Z,30.15
2018-12-13T20:11:17.589Z,31.30
2018-12-13T20:13:45.057Z,29.25
2018-12-13T20:16:12.583Z,27.07
2018-12-13T20:18:40.082Z,21.77
2018-12-13T20:21:07.612Z,27.13
2018-12-13T20:23:35.152Z,27.87
2018-12-13T20:26:02.653Z,29.02
2018-12-13T20:28:30.110Z,26.60
2018-12-13T20:30:57.564Z,27.30
2018-12-13T20:33:25.023Z,32.85
2018-12-13T20:35:52.503Z,24.00
2018-12-13T20:38:19.951Z,22.85
2018-12-13T20:40:47.409Z,25.25
2018-12-13T20:43:14.853Z,22.42
2018-12-13T20:45:42.327Z,26.33
2018-12-13T20:48:09.817Z,20.85
2018-12-13T20:50:37.274Z,20.32
2018-12-13T20:53:04.717Z,21.82
2018-12-13T20:55:32.170Z,21.75
2018-12-13T20:57:59.627Z,17.37
2018-12-13T21:00:27.127Z,25.00
2018-12-13T21:02:54.587Z,24.52
2018-12-13T21:05:22.039Z,20.95
2018-12-13T21:07:49.485Z,26.02
2018-12-13T21:10:16.941Z,33.83
2018-12-13T21:12:44.398Z,24.82
2018-12-13T21:15:11.848Z,21.50
2018-12-13T21:17:39.300Z,26.33
2018-12-13T21:20:06.786Z,29.70
2018-12-13T21:22:34.244Z,24.47
2018-12-13T21:25:01.689Z,26.85
2018-12-13T21:27:29.145Z,23.95
2018-12-13T21:29:56.597Z,24.32
2018-12-13T21:32:24.098Z,21.37
2018-12-13T21:34:51.555Z,24.23
2018-12-13T21:37:19.041Z,21.00
2018-12-13T21:39:46.527Z,21.23
2018-12-13T21:42:13.985Z,23.15
2018-12-13T21:44:41.461Z,29.12
2018-12-13T21:47:08.910Z,27.02
2018-12-13T21:49:36.369Z,24.98
2018-12-13T21:52:03.894Z,21.45
2018-12-13T21:54:31.343Z,21.42
2018-12-13T21:56:58.833Z,19.10
2018-12-13T21:59:26.285Z,22.10
2018-12-13T22:01:53.745Z,19.55
2018-12-13T22:04:21.193Z,26.57
2018-12-13T22:06:48.650Z,20.40
2018-12-13T22:09:16.102Z,22.20
2018-12-13T22:11:43.554Z,21.70
2018-12-13T22:14:11.010Z,23.87
2018-12-13T22:16:38.469Z,24.25
2018-12-13T22:19:05.957Z,22.62
2018-12-13T22:21:33.413Z,28.95
2018-12-13T22:24:00.862Z,28.27
2018-12-13T22:26:28.352Z,26.60
2018-12-13T22:28:55.801Z,21.20
2018-12-13T22:31:23.302Z,25.43
2018-12-13T22:33:50.754Z,37.98
2018-12-13T22:36:18.255Z,37.60
2018-12-13T22:38:46.447Z,25.80
2018-12-13T22:41:13.901Z,27.70
2018-12-13T22:43:41.363Z,26.48
2018-12-13T22:46:08.812Z,25.27
2018-12-13T22:48:36.260Z,22.75
2018-12-13T22:51:03.790Z,23.90
2018-12-13T22:53:31.241Z,15.65
2018-12-13T22:55:58.689Z,26.73
2018-12-13T22:58:26.185Z,23.95
2018-12-13T23:00:53.668Z,25.48
2018-12-13T23:03:21.270Z,25.97
2018-12-13T23:05:48.749Z,23.10
2018-12-13T23:08:16.211Z,20.97
2018-12-13T23:10:43.666Z,21.50
2018-12-13T23:13:11.158Z,23.25
2018-12-13T23:15:38.610Z,23.25
2018-12-13T23:18:06.145Z,24.10
2018-12-13T23:20:33.591Z,21.65
2018-12-13T23:23:01.050Z,28.35
2018-12-13T23:25:28.543Z,25.50
2018-12-13T23:27:55.993Z,22.40
2018-12-13T23:30:23.485Z,24.75
2018-12-13T23:32:50.948Z,22.67
2018-12-13T23:35:18.437Z,22.05
2018-12-13T23:37:45.905Z,21.70
2018-12-13T23:40:13.349Z,23.50
2018-12-13T23:42:40.805Z,22.75
2018-12-13T23:45:08.289Z,25.05
2018-12-13T23:47:35.749Z,27.98
2018-12-13T23:50:03.573Z,23.80
2018-12-13T23:52:31.029Z,24.40
2018-12-13T23:54:58.485Z,20.88
2018-12-13T23:57:26.018Z,21.68
2018-12-13T23:59:53.466Z,20.45
